Time;durP1;ratioP1;P1;durP2;ratioP2;P2;SDS_P1;SDS_P2;PMS_P1;PMS_P2;Temp;Humidity;BMP_temperature;BMP_pressure;BME280_temperature;BME280_humidity;BME280_pressure;Samples;Min_cycle;Max_cycle;Signal;HPM_P1;HPM_P2
2021/07/09 00:01:05;;;;;;;8.88;3.98;;;;;;;;;;348660;154;864867;-63
2021/07/09 00:02:06;;;;;;;7.51;3.71;;;;;;;;;;350999;151;859217;-63
2021/07/09 00:03:10;;;;;;;8.02;3.49;;;;;;;;;;349500;150;864929;-63
2021/07/09 00:04:12;;;;;;;10.03;3.83;;;;;;;;;;349732;151;857417;-63
2021/07/09 00:05:13;;;;;;;7.29;3.99;;;;;;;;;;348743;152;858303;-63
2021/07/09 00:06:19;;;;;;;8.93;4.12;;;;;;;;;;349600;149;864716;-63
2021/07/09 00:07:19;;;;;;;4.69;3.77;;;;;;;;;;351890;149;857257;-63
2021/07/09 00:08:21;;;;;;;7.14;3.54;;;;;;;;;;348831;151;866100;-63
2021/07/09 00:09:23;;;;;;;22.74;3.59;;;;;;;;;;350718;151;857812;-63
2021/07/09 00:10:25;;;;;;;6.03;3.13;;;;;;;;;;349985;150;857344;-63
2021/07/09 00:11:27;;;;;;;7.66;3.59;;;;;;;;;;349383;150;857399;-63
2021/07/09 00:12:28;;;;;;;6.99;3.75;;;;;;;;;;348784;154;857365;-63
2021/07/09 00:13:30;;;;;;;9.86;4.07;;;;;;;;;;350777;150;857296;-63
2021/07/09 00:14:32;;;;;;;6.41;3.78;;;;;;;;;;350280;149;857344;-63
2021/07/09 00:15:34;;;;;;;5.85;3.54;;;;;;;;;;349940;151;857406;-63
2021/07/09 00:16:37;;;;;;;6.77;3.67;;;;;;;;;;354398;151;857298;-63
2021/07/09 00:17:39;;;;;;;6.10;3.64;;;;;;;;;;349838;149;857332;-63
2021/07/09 00:18:41;;;;;;;5.69;3.49;;;;;;;;;;349692;150;857187;-63
2021/07/09 00:19:42;;;;;;;4.03;3.19;;;;;;;;;;348983;151;857335;-63
2021/07/09 00:20:44;;;;;;;4.25;3.47;;;;;;;;;;349610;151;859027;-63
2021/07/09 00:21:46;;;;;;;5.06;3.69;;;;;;;;;;350596;150;858981;-63
2021/07/09 00:22:47;;;;;;;9.06;3.71;;;;;;;;;;350181;151;858275;-63
2021/07/09 00:23:49;;;;;;;5.38;3.76;;;;;;;;;;354109;151;858164;-63
2021/07/09 00:24:51;;;;;;;6.32;3.44;;;;;;;;;;351686;149;860644;-63
2021/07/09 00:25:52;;;;;;;6.29;3.53;;;;;;;;;;350629;149;858985;-64
2021/07/09 00:26:54;;;;;;;8.54;3.69;;;;;;;;;;355096;151;858532;-65
2021/07/09 00:27:56;;;;;;;5.55;3.65;;;;;;;;;;353398;151;859516;-65
2021/07/09 00:28:58;;;;;;;6.04;3.34;;;;;;;;;;350189;151;866546;-65
2021/07/09 00:29:59;;;;;;;8.29;3.99;;;;;;;;;;354740;151;857290;-65
2021/07/09 00:31:01;;;;;;;8.33;3.92;;;;;;;;;;350748;149;866152;-65
2021/07/09 00:32:03;;;;;;;7.51;3.79;;;;;;;;;;350340;150;859756;-63
2021/07/09 00:33:05;;;;;;;5.82;3.11;;;;;;;;;;348906;151;860157;-62
2021/07/09 00:34:06;;;;;;;8.88;3.63;;;;;;;;;;349675;149;857356;-65
2021/07/09 00:35:09;;;;;;;8.16;3.74;;;;;;;;;;349749;149;857328;-63
2021/07/09 00:36:12;;;;;;;6.94;3.52;;;;;;;;;;353022;149;864930;-63
2021/07/09 00:37:13;;;;;;;5.01;3.14;;;;;;;;;;350257;154;865783;-63
2021/07/09 00:38:15;;;;;;;4.99;3.64;;;;;;;;;;349768;152;858896;-63
2021/07/09 00:39:16;;;;;;;8.39;3.59;;;;;;;;;;346182;153;857108;-63
2021/07/09 00:40:20;;;;;;;6.89;3.73;;;;;;;;;;348539;153;857240;-63
2021/07/09 00:41:21;;;;;;;5.76;3.65;;;;;;;;;;340386;158;857880;-63
2021/07/09 00:42:23;;;;;;;8.99;3.35;;;;;;;;;;346764;153;857211;-63
2021/07/09 00:43:24;;;;;;;5.88;3.80;;;;;;;;;;350289;151;857356;-63
2021/07/09 00:44:26;;;;;;;6.91;4.06;;;;;;;;;;345603;151;857322;-63
2021/07/09 00:45:27;;;;;;;6.17;3.89;;;;;;;;;;342212;154;857352;-63
2021/07/09 00:46:30;;;;;;;9.81;3.58;;;;;;;;;;343017;154;857428;-63
2021/07/09 00:47:32;;;;;;;9.12;3.49;;;;;;;;;;343916;156;857394;-63
2021/07/09 00:48:34;;;;;;;7.42;3.60;;;;;;;;;;342935;153;857402;-63
2021/07/09 00:49:35;;;;;;;6.41;3.33;;;;;;;;;;342305;154;857398;-63
2021/07/09 00:50:39;;;;;;;5.97;4.19;;;;;;;;;;347432;152;864778;-63
2021/07/09 00:51:40;;;;;;;6.34;4.19;;;;;;;;;;342979;157;858545;-63
2021/07/09 00:52:42;;;;;;;6.92;4.26;;;;;;;;;;343522;155;864776;-63
2021/07/09 00:53:44;;;;;;;6.20;3.54;;;;;;;;;;348047;153;857253;-63
2021/07/09 00:54:45;;;;;;;6.37;4.11;;;;;;;;;;349831;151;857268;-63
2021/07/09 00:55:47;;;;;;;6.46;3.91;;;;;;;;;;338787;155;858962;-63
2021/07/09 00:56:48;;;;;;;5.56;3.56;;;;;;;;;;343154;154;859222;-63
2021/07/09 00:57:51;;;;;;;7.07;3.33;;;;;;;;;;346163;152;866584;-63
2021/07/09 00:58:52;;;;;;;6.17;3.49;;;;;;;;;;342609;156;866324;-63
2021/07/09 00:59:54;;;;;;;9.01;3.98;;;;;;;;;;342067;154;858118;-63
2021/07/09 01:00:56;;;;;;;10.32;3.80;;;;;;;;;;343411;154;858925;-63
2021/07/09 01:01:59;;;;;;;6.63;3.59;;;;;;;;;;337026;156;857206;-63
2021/07/09 01:03:01;;;;;;;6.72;3.96;;;;;;;;;;347967;153;857099;-63
2021/07/09 01:04:02;;;;;;;8.89;3.77;;;;;;;;;;347687;151;857220;-63
2021/07/09 01:05:04;;;;;;;9.41;4.09;;;;;;;;;;348814;152;857194;-63
2021/07/09 01:06:07;;;;;;;6.73;3.93;;;;;;;;;;341535;156;865575;-63
2021/07/09 01:07:08;;;;;;;6.50;3.67;;;;;;;;;;348827;151;857303;-63
2021/07/09 01:08:11;;;;;;;6.66;3.72;;;;;;;;;;347152;151;859091;-63
2021/07/09 01:09:12;;;;;;;7.17;3.88;;;;;;;;;;342701;154;859795;-63
2021/07/09 01:10:17;;;;;;;4.71;3.69;;;;;;;;;;347924;154;864990;-63
2021/07/09 01:11:19;;;;;;;4.97;3.45;;;;;;;;;;344689;154;857221;-63
2021/07/09 01:12:20;;;;;;;8.47;3.85;;;;;;;;;;350350;152;864932;-63
2021/07/09 01:13:22;;;;;;;9.32;4.12;;;;;;;;;;344819;154;857384;-63
2021/07/09 01:14:23;;;;;;;9.12;3.56;;;;;;;;;;343744;154;859783;-63
2021/07/09 01:15:25;;;;;;;5.90;4.10;;;;;;;;;;343164;154;859330;-63
2021/07/09 01:16:28;;;;;;;6.21;3.92;;;;;;;;;;341186;155;858544;-63
2021/07/09 01:17:30;;;;;;;7.76;3.74;;;;;;;;;;343499;156;857366;-63
2021/07/09 01:18:31;;;;;;;7.90;3.91;;;;;;;;;;345368;153;858566;-63
2021/07/09 01:19:33;;;;;;;8.90;3.87;;;;;;;;;;339774;154;857370;-63
2021/07/09 01:20:36;;;;;;;7.44;3.96;;;;;;;;;;344630;153;857360;-63
2021/07/09 01:21:39;;;;;;;11.94;4.00;;;;;;;;;;345404;153;858323;-63
2021/07/09 01:22:44;;;;;;;7.75;3.94;;;;;;;;;;343125;154;857391;-63
2021/07/09 01:23:46;;;;;;;7.09;3.54;;;;;;;;;;343801;156;857621;-64
2021/07/09 01:24:48;;;;;;;7.99;3.86;;;;;;;;;;339038;156;857747;-63
2021/07/09 01:25:49;;;;;;;8.15;3.98;;;;;;;;;;344903;153;857417;-64
2021/07/09 01:26:52;;;;;;;8.53;3.88;;;;;;;;;;342441;154;857732;-64
2021/07/09 01:27:55;;;;;;;7.42;4.11;;;;;;;;;;343046;156;857239;-64
2021/07/09 01:28:57;;;;;;;6.68;3.82;;;;;;;;;;345236;153;857237;-64
2021/07/09 01:29:58;;;;;;;6.35;4.01;;;;;;;;;;342501;156;858586;-64
2021/07/09 01:31:00;;;;;;;11.10;4.14;;;;;;;;;;343616;156;857274;-64
2021/07/09 01:32:02;;;;;;;7.29;3.66;;;;;;;;;;339795;156;857180;-64
2021/07/09 01:33:04;;;;;;;10.61;4.11;;;;;;;;;;341684;154;864748;-63
2021/07/09 01:34:05;;;;;;;5.95;3.89;;;;;;;;;;339593;154;866325;-64
2021/07/09 01:35:07;;;;;;;7.79;3.83;;;;;;;;;;345437;156;859329;-64
2021/07/09 01:36:09;;;;;;;5.96;3.87;;;;;;;;;;347483;151;857682;-64
2021/07/09 01:37:11;;;;;;;7.52;3.90;;;;;;;;;;340514;154;857351;-64
2021/07/09 01:38:13;;;;;;;7.65;3.75;;;;;;;;;;341511;157;856434;-64
2021/07/09 01:39:15;;;;;;;9.07;3.61;;;;;;;;;;340968;154;857257;-64
2021/07/09 01:40:17;;;;;;;7.10;3.87;;;;;;;;;;355749;147;864823;-63
2021/07/09 01:41:20;;;;;;;6.56;4.19;;;;;;;;;;357190;148;864817;-63
2021/07/09 01:42:21;;;;;;;5.60;3.78;;;;;;;;;;357243;150;858017;-63
2021/07/09 01:43:24;;;;;;;7.85;3.80;;;;;;;;;;359398;148;858924;-64
2021/07/09 01:44:26;;;;;;;8.86;3.98;;;;;;;;;;359688;146;858789;-63
2021/07/09 01:45:27;;;;;;;7.09;3.74;;;;;;;;;;361328;149;857183;-64
2021/07/09 01:46:30;;;;;;;9.27;3.67;;;;;;;;;;360070;149;857346;-63
2021/07/09 01:47:31;;;;;;;11.18;4.04;;;;;;;;;;357519;146;857340;-63
2021/07/09 01:48:33;;;;;;;6.36;3.83;;;;;;;;;;360904;148;864933;-63
2021/07/09 01:49:48;;;;;;;6.35;3.87;;;;;;;;;;356346;149;857319;-64
2021/07/09 01:50:52;;;;;;;8.18;4.56;;;;;;;;;;336400;154;857937;-63
2021/07/09 01:51:54;;;;;;;8.39;3.87;;;;;;;;;;348356;149;859806;-63
2021/07/09 01:52:57;;;;;;;5.26;3.99;;;;;;;;;;361783;149;860038;-63
2021/07/09 01:53:58;;;;;;;10.51;4.43;;;;;;;;;;357713;146;858686;-63
2021/07/09 01:55:00;;;;;;;9.73;3.66;;;;;;;;;;359523;147;866455;-63
2021/07/09 01:56:02;;;;;;;6.82;3.76;;;;;;;;;;359142;149;864735;-63
2021/07/09 01:57:03;;;;;;;6.84;3.79;;;;;;;;;;357012;149;864826;-63
2021/07/09 01:58:05;;;;;;;8.81;4.44;;;;;;;;;;356989;146;857377;-64
2021/07/09 01:59:06;;;;;;;9.66;3.93;;;;;;;;;;358147;147;866573;-63
2021/07/09 02:00:10;;;;;;;6.69;3.77;;;;;;;;;;360188;147;859089;-63
2021/07/09 02:01:11;;;;;;;6.84;3.77;;;;;;;;;;360819;146;857795;-63
2021/07/09 02:02:13;;;;;;;10.61;4.56;;;;;;;;;;357409;148;866145;-63
2021/07/09 02:03:15;;;;;;;14.60;4.73;;;;;;;;;;355292;151;857138;-63
2021/07/09 02:04:16;;;;;;;14.09;4.46;;;;;;;;;;355308;151;857273;-63
2021/07/09 02:05:18;;;;;;;11.56;4.88;;;;;;;;;;360352;146;857706;-63
2021/07/09 02:06:21;;;;;;;14.91;5.36;;;;;;;;;;359895;148;857187;-63
2021/07/09 02:07:25;;;;;;;10.67;4.51;;;;;;;;;;356855;149;859131;-63
2021/07/09 02:08:27;;;;;;;9.57;4.90;;;;;;;;;;358315;147;857398;-63
2021/07/09 02:09:29;;;;;;;10.06;4.64;;;;;;;;;;356803;149;860024;-63
2021/07/09 02:10:33;;;;;;;12.36;4.75;;;;;;;;;;354875;151;857325;-63
2021/07/09 02:11:34;;;;;;;8.59;4.24;;;;;;;;;;356820;147;858208;-63
2021/07/09 02:12:36;;;;;;;10.22;4.58;;;;;;;;;;358121;146;857214;-63
2021/07/09 02:13:37;;;;;;;8.19;4.19;;;;;;;;;;362529;148;860847;-63
2021/07/09 02:14:39;;;;;;;13.31;5.16;;;;;;;;;;362599;147;867090;-63
2021/07/09 02:15:43;;;;;;;12.19;5.26;;;;;;;;;;360092;146;858801;-63
2021/07/09 02:16:46;;;;;;;12.28;4.69;;;;;;;;;;359650;147;857102;-63
2021/07/09 02:17:47;;;;;;;9.91;4.31;;;;;;;;;;358488;146;859113;-62
2021/07/09 02:18:50;;;;;;;9.90;4.51;;;;;;;;;;359926;148;858965;-64
2021/07/09 02:19:52;;;;;;;8.64;4.13;;;;;;;;;;359826;146;857315;-63
2021/07/09 02:20:57;;;;;;;8.88;4.53;;;;;;;;;;356288;148;857749;-63
2021/07/09 02:21:59;;;;;;;10.04;4.48;;;;;;;;;;361099;148;864819;-63
2021/07/09 02:23:01;;;;;;;9.24;4.25;;;;;;;;;;357846;147;857256;-64
2021/07/09 02:24:03;;;;;;;9.75;4.16;;;;;;;;;;357601;147;857404;-63
2021/07/09 02:25:05;;;;;;;8.59;4.46;;;;;;;;;;357744;149;857339;-63
2021/07/09 02:26:07;;;;;;;11.15;4.51;;;;;;;;;;357075;148;865328;-63
2021/07/09 02:27:09;;;;;;;11.62;4.66;;;;;;;;;;357371;148;866730;-64
2021/07/09 02:28:10;;;;;;;7.77;4.08;;;;;;;;;;357096;146;857460;-63
2021/07/09 02:29:12;;;;;;;6.84;4.15;;;;;;;;;;359898;149;856736;-63
2021/07/09 02:30:17;;;;;;;12.77;4.48;;;;;;;;;;357127;147;866617;-64
2021/07/09 02:31:19;;;;;;;8.86;4.62;;;;;;;;;;358401;149;857149;-63
2021/07/09 02:32:21;;;;;;;15.59;5.14;;;;;;;;;;362575;146;859932;-63
2021/07/09 02:33:22;;;;;;;14.15;4.94;;;;;;;;;;356965;146;857766;-63
2021/07/09 02:34:24;;;;;;;14.04;4.50;;;;;;;;;;357388;146;857307;-63
2021/07/09 02:35:26;;;;;;;7.09;3.82;;;;;;;;;;355458;149;857255;-63
2021/07/09 02:36:29;;;;;;;8.88;4.56;;;;;;;;;;361549;148;857313;-61
2021/07/09 02:37:30;;;;;;;10.14;4.48;;;;;;;;;;359244;146;857319;-63
2021/07/09 02:38:32;;;;;;;14.35;4.66;;;;;;;;;;355260;146;859296;-63
2021/07/09 02:39:34;;;;;;;8.56;4.52;;;;;;;18.83;100.00;112913.89;356998;148;857876;-63
2021/07/09 02:40:36;;;;;;;7.86;3.77;;;;;;;;;;358776;146;864745;-64
2021/07/09 02:41:38;;;;;;;6.59;3.59;;;;;;;;;;356402;146;858887;-64
2021/07/09 02:42:40;;;;;;;6.76;3.81;;;;;;;;;;355095;151;857191;-63
2021/07/09 02:43:41;;;;;;;6.33;3.77;;;;;;;;;;357086;146;864743;-64
2021/07/09 02:44:43;;;;;;;9.99;4.18;;;;;;;;;;358899;146;857204;-63
2021/07/09 02:45:45;;;;;;;8.05;4.11;;;;;;;;;;360419;148;857231;-63
2021/07/09 02:46:48;;;;;;;10.87;4.02;;;;;;;;;;360479;148;866643;-62
2021/07/09 02:47:50;;;;;;;8.29;3.99;;;;;;;;;;358210;146;859506;-63
2021/07/09 02:48:52;;;;;;;8.53;4.19;;;;;;;;;;358218;146;857164;-62
2021/07/09 02:49:53;;;;;;;9.55;4.24;;;;;;;;;;360651;149;864732;-62
2021/07/09 02:50:55;;;;;;;10.58;4.49;;;;;;;;;;359438;146;867132;-63
2021/07/09 02:51:57;;;;;;;8.62;4.01;;;;;;;;;;357519;146;866164;-63
2021/07/09 02:52:58;;;;;;;9.35;3.86;;;;;;;;;;356163;147;859532;-63
2021/07/09 02:54:00;;;;;;;10.23;4.09;;;;;;;;;;358629;146;859664;-62
2021/07/09 02:55:03;;;;;;;15.12;4.51;;;;;;;;;;356930;148;858796;-62
2021/07/09 02:56:05;;;;;;;10.77;4.19;;;;;;;;;;356858;147;858384;-62
2021/07/09 02:57:06;;;;;;;9.24;4.50;;;;;;;;;;355564;148;859208;-62
2021/07/09 02:58:08;;;;;;;9.16;4.31;;;;;;;;;;357510;148;859306;-63
2021/07/09 02:59:10;;;;;;;8.08;4.21;;;;;;;;;;359415;147;857315;-64
2021/07/09 03:00:13;;;;;;;6.60;4.07;;;;;;;;;;355972;149;864919;-63
2021/07/09 03:01:15;;;;;;;10.63;4.31;;;;;;;;;;357248;149;857861;-64
2021/07/09 03:02:17;;;;;;;11.95;4.51;;;;;;;;;;355568;147;866017;-64
2021/07/09 03:03:18;;;;;;;11.99;4.36;;;;;;;;;;359117;147;857187;-61
2021/07/09 03:04:20;;;;;;;10.98;4.61;;;;;;;;;;359436;149;864932;-63
2021/07/09 03:05:21;;;;;;;9.09;4.49;;;;;;;;;;358232;149;857286;-63
2021/07/09 03:06:23;;;;;;;10.82;4.09;;;;;;;;;;358907;146;857263;-63
2021/07/09 03:07:25;;;;;;;11.29;4.39;;;;;;;;;;356272;149;857747;-63
2021/07/09 03:08:27;;;;;;;10.56;4.36;;;;;;;;;;359386;146;858988;-64
2021/07/09 03:09:28;;;;;;;7.51;3.81;;;;;;;;;;356433;146;865814;-63
2021/07/09 03:10:31;;;;;;;11.85;4.22;;;;;;;;;;357282;148;859084;-63
2021/07/09 03:11:33;;;;;;;8.84;4.96;;;;;;;;;;359650;149;857322;-63
2021/07/09 03:12:35;;;;;;;8.23;4.44;;;;;;;;;;360457;148;857270;-62
2021/07/09 03:13:36;;;;;;;11.16;4.49;;;;;;;;;;358041;147;857160;-63
2021/07/09 03:14:39;;;;;;;14.51;4.14;;;;;;;;;;356826;149;857340;-62
2021/07/09 03:15:41;;;;;;;7.11;4.16;;;;;;;;;;357942;149;857308;-62
2021/07/09 03:16:45;;;;;;;7.14;4.11;;;;;;;;;;360468;146;857138;-63
2021/07/09 03:17:46;;;;;;;8.34;4.38;;;;;;;;;;357443;147;858966;-61
2021/07/09 03:18:48;;;;;;;11.44;4.77;;;;;;;;;;360963;149;857208;-64
2021/07/09 03:19:49;;;;;;;8.00;4.73;;;;;;;;;;358373;148;857823;-63
2021/07/09 03:20:54;;;;;;;8.72;4.36;;;;;;;;;;356657;147;859159;-64
2021/07/09 03:21:55;;;;;;;9.71;4.14;;;;;;;;;;361222;148;857742;-64
2021/07/09 03:22:57;;;;;;;7.86;4.06;;;;;;;;;;359803;149;864755;-61
2021/07/09 03:23:59;;;;;;;9.84;4.42;;;;;;;;;;358433;147;857287;-65
2021/07/09 03:25:00;;;;;;;8.31;4.29;;;;;;;;;;355226;148;859098;-63
2021/07/09 03:26:02;;;;;;;8.30;4.25;;;;;;;;;;360784;149;858701;-64
2021/07/09 03:27:04;;;;;;;9.34;4.34;;;;;;;;;;357473;146;866302;-66
2021/07/09 03:28:05;;;;;;;8.68;4.37;;;;;;;;;;357380;148;860236;-63
2021/07/09 03:29:07;;;;;;;6.29;4.07;;;;;;;;;;359163;149;857453;-64
2021/07/09 03:30:09;;;;;;;6.94;4.20;;;;;;;;;;358019;146;859799;-63
2021/07/09 03:31:11;;;;;;;7.28;4.21;;;;;;;;;;358116;146;857489;-65
2021/07/09 03:32:13;;;;;;;8.36;4.64;;;;;;;;;;359302;147;856412;-65
2021/07/09 03:33:14;;;;;;;11.32;4.83;;;;;;;;;;359856;149;857343;-64
2021/07/09 03:34:16;;;;;;;9.43;4.74;;;;;;;;;;357906;146;858877;-63
2021/07/09 03:35:17;;;;;;;10.34;4.61;;;;;;;;;;358602;147;859136;-66
2021/07/09 03:36:20;;;;;;;10.00;4.52;;;;;;;;;;356760;146;857273;-63
2021/07/09 03:37:22;;;;;;;13.01;4.94;;;;;;;;;;360523;146;858036;-66
2021/07/09 03:38:23;;;;;;;17.11;5.07;;;;;;;;;;357404;146;865524;-62
2021/07/09 03:39:25;;;;;;;11.12;5.08;;;;;;;;;;356724;147;857331;-63
2021/07/09 03:40:28;;;;;;;12.76;5.49;;;;;;;;;;354422;149;857297;-64
2021/07/09 03:41:30;;;;;;;16.97;4.54;;;;;;;;;;352422;148;860495;-63
2021/07/09 03:42:31;;;;;;;10.10;4.74;;;;;;;;;;352521;148;857338;-64
2021/07/09 03:43:33;;;;;;;10.10;4.34;;;;;;;;;;353523;150;857357;-65
2021/07/09 03:44:34;;;;;;;11.96;4.57;;;;;;;;;;355729;148;857186;-64
2021/07/09 03:45:36;;;;;;;9.12;4.31;;;;;;;;;;352090;150;857244;-65
2021/07/09 03:46:38;;;;;;;9.09;4.16;;;;;;;;;;351241;148;857294;-64
2021/07/09 03:47:40;;;;;;;9.19;4.21;;;;;;;;;;351315;150;857221;-65
2021/07/09 03:48:42;;;;;;;10.06;4.07;;;;;;;;;;353139;150;857197;-64
2021/07/09 03:49:44;;;;;;;13.87;4.63;;;;;;;;;;352821;148;857288;-64
2021/07/09 03:50:47;;;;;;;10.22;4.53;;;;;;;;;;352265;150;857432;-62
2021/07/09 03:51:48;;;;;;;8.91;4.43;;;;;;;;;;352099;148;866259;-65
2021/07/09 03:52:50;;;;;;;7.67;4.22;;;;;;;;;;353187;148;865012;-62
2021/07/09 03:53:54;;;;;;;12.51;4.81;;;;;;;;;;352976;150;857218;-64
2021/07/09 03:54:55;;;;;;;11.60;4.81;;;;;;;;;;352740;150;865126;-64
2021/07/09 03:55:57;;;;;;;14.59;4.97;;;;;;;;;;353668;149;859803;-63
2021/07/09 03:56:58;;;;;;;9.34;5.03;;;;;;;;;;354431;148;857301;-65
2021/07/09 03:58:00;;;;;;;14.46;4.60;;;;;;;;;;351327;153;864848;-64
2021/07/09 03:59:01;;;;;;;8.72;4.51;;;;;;;;;;356861;150;857283;-65
2021/07/09 04:00:05;;;;;;;8.65;4.55;;;;;;;;;;354751;148;857291;-65
2021/07/09 04:01:06;;;;;;;10.16;4.62;;;;;;;;;;352935;150;867277;-64
2021/07/09 04:02:08;;;;;;;13.39;4.86;;;;;;;;;;357723;150;857295;-66
2021/07/09 04:03:09;;;;;;;10.56;5.16;;;;;;;;;;352662;148;858217;-64
2021/07/09 04:04:11;;;;;;;12.35;5.25;;;;;;;;;;355240;148;859532;-63
2021/07/09 04:05:13;;;;;;;13.11;5.55;;;;;;;;;;353142;150;860075;-65
2021/07/09 04:06:16;;;;;;;11.24;5.49;;;;;;;;;;353026;150;857324;-64
2021/07/09 04:07:18;;;;;;;9.69;4.87;;;;;;;;;;353435;148;859152;-66
2021/07/09 04:08:19;;;;;;;9.96;4.86;;;;;;;;;;351464;150;864919;-63
2021/07/09 04:09:21;;;;;;;9.76;4.59;;;;;;;;;;351671;150;857614;-63
2021/07/09 04:10:24;;;;;;;16.22;4.94;;;;;;;;;;353055;148;857737;-63
2021/07/09 04:11:26;;;;;;;11.56;4.62;;;;;;;;;;351982;150;860096;-64
2021/07/09 04:12:27;;;;;;;12.21;4.66;;;;;;;;;;351997;150;866690;-66
2021/07/09 04:13:29;;;;;;;7.24;4.04;;;;;;;;;;353886;148;859137;-67
2021/07/09 04:14:31;;;;;;;11.29;4.58;;;;;;;;;;352460;148;858702;-68
2021/07/09 04:15:33;;;;;;;9.69;4.96;;;;;;;;;;357096;148;857624;-69
2021/07/09 04:16:36;;;;;;;8.02;4.49;;;;;;;;;;356208;150;858988;-66
2021/07/09 04:17:38;;;;;;;12.30;4.81;;;;;;;;;;352843;148;857321;-67
2021/07/09 04:18:40;;;;;;;10.42;4.53;;;;;;;;;;352251;148;857162;-66
2021/07/09 04:19:41;;;;;;;9.10;4.39;;;;;;;;;;354737;150;857087;-68
2021/07/09 04:20:45;;;;;;;13.38;4.34;;;;;;;;;;353886;148;859158;-72
2021/07/09 04:21:47;;;;;;;7.70;4.26;;;;;;;;;;353484;148;857270;-69
2021/07/09 04:22:48;;;;;;;8.19;4.29;;;;;;;;;;353135;150;859649;-69
2021/07/09 04:23:50;;;;;;;11.16;4.56;;;;;;;;;;352494;150;858982;-69
2021/07/09 04:24:51;;;;;;;11.96;5.11;;;;;;;;;;351271;149;860148;-67
2021/07/09 04:25:53;;;;;;;10.68;5.33;;;;;;;;;;353893;148;858433;-63
2021/07/09 04:26:55;;;;;;;8.61;4.55;;;;;;;;;;358039;148;858356;-63
2021/07/09 04:27:57;;;;;;;10.60;4.54;;;;;;;;;;353025;148;858637;-66
2021/07/09 04:28:58;;;;;;;10.09;4.45;;;;;;;;;;351951;148;857271;-67
2021/07/09 04:30:00;;;;;;;9.74;4.35;;;;;;;;;;353038;148;857294;-64
2021/07/09 04:31:02;;;;;;;11.09;4.43;;;;;;;;;;352719;150;857282;-64
2021/07/09 04:32:04;;;;;;;6.72;4.26;;;;;;;;;;351874;148;860369;-64
2021/07/09 04:33:05;;;;;;;10.64;4.47;;;;;;;;;;352951;148;859034;-63
2021/07/09 04:34:07;;;;;;;12.31;4.53;;;;;;;;;;352795;148;865299;-66
2021/07/09 04:35:09;;;;;;;6.90;3.76;;;;;;;;;;355280;148;857440;-67
2021/07/09 04:36:12;;;;;;;7.52;3.94;;;;;;;;;;352369;148;859301;-70
2021/07/09 04:37:14;;;;;;;12.77;4.95;;;;;;;;;;356373;148;857402;-74
2021/07/09 04:38:16;;;;;;;7.74;4.01;;;;;;;;;;359806;148;857453;-64
2021/07/09 04:39:17;;;;;;;10.77;4.13;;;;;;;;;;353730;148;858182;-68
2021/07/09 04:40:20;;;;;;;10.05;4.60;;;;;;;;;;354781;148;857216;-66
2021/07/09 04:41:22;;;;;;;9.79;4.26;;;;;;;;;;352554;150;865642;-68
2021/07/09 04:42:23;;;;;;;11.87;4.72;;;;;;;;;;354467;149;857662;-68
2021/07/09 04:43:25;;;;;;;12.94;4.88;;;;;;;;;;353837;148;857333;-69
2021/07/09 04:44:26;;;;;;;9.79;4.48;;;;;;;;;;353485;150;857358;-69
2021/07/09 04:45:28;;;;;;;10.84;4.24;;;;;;;;;;350132;150;857251;-68
2021/07/09 04:46:31;;;;;;;8.56;4.74;;;;;;;;;;352866;148;858408;-69
2021/07/09 04:47:33;;;;;;;10.86;4.61;;;;;;;;;;353315;148;857323;-66
2021/07/09 04:48:34;;;;;;;12.94;4.54;;;;;;;;;;355097;148;861224;-68
2021/07/09 04:49:36;;;;;;;12.34;5.49;;;;;;;;;;351187;148;858978;-64
2021/07/09 04:50:38;;;;;;;10.65;4.71;;;;;;;;;;353870;148;857542;-67
2021/07/09 04:51:40;;;;;;;9.35;4.41;;;;;;;;;;357245;150;858927;-67
2021/07/09 04:52:42;;;;;;;7.19;4.19;;;;;;;;;;355756;149;866519;-65
2021/07/09 04:53:43;;;;;;;12.62;4.54;;;;;;;;;;350863;149;858918;-64
2021/07/09 04:54:45;;;;;;;11.45;4.44;;;;;;;;;;354556;148;860152;-66
2021/07/09 04:55:46;;;;;;;12.07;4.41;;;;;;;;;;354653;150;859609;-65
2021/07/09 04:56:50;;;;;;;11.98;4.80;;;;;;;;;;354578;148;857274;-62
2021/07/09 04:57:51;;;;;;;15.32;4.47;;;;;;;;;;352590;148;858928;-65
2021/07/09 04:58:53;;;;;;;10.61;4.16;;;;;;;;;;352351;150;858607;-67
2021/07/09 04:59:54;;;;;;;14.34;5.06;;;;;;;;;;353536;148;857852;-66
2021/07/09 05:00:58;;;;;;;11.12;4.03;;;;;;;;;;352515;148;857277;-66
2021/07/09 05:01:59;;;;;;;12.57;4.29;;;;;;;;;;354588;148;858880;-64
2021/07/09 05:03:01;;;;;;;10.80;3.72;;;;;;;;;;353403;150;857284;-64
2021/07/09 05:04:04;;;;;;;15.38;3.52;;;;;;;;;;352283;148;857204;-65
2021/07/09 05:05:06;;;;;;;10.04;3.71;;;;;;;;;;352256;148;857622;-66
2021/07/09 05:06:09;;;;;;;13.23;3.77;;;;;;;;;;351213;153;857845;-66
2021/07/09 05:07:10;;;;;;;9.16;3.36;;;;;;;;;;353859;148;857335;-64
2021/07/09 05:08:12;;;;;;;8.48;3.08;;;;;;;;;;354247;148;856586;-65
2021/07/09 05:09:13;;;;;;;7.51;3.09;;;;;;;;;;353292;148;857508;-64
2021/07/09 05:10:15;;;;;;;15.58;3.90;;;;;;;;;;352426;150;857322;-65
2021/07/09 05:11:17;;;;;;;13.62;3.86;;;;;;;;;;354622;148;857223;-65
2021/07/09 05:12:19;;;;;;;8.51;3.74;;;;;;;;;;352274;149;859365;-66
2021/07/09 05:13:20;;;;;;;7.36;3.06;;;;;;;;;;354523;148;864796;-67
2021/07/09 05:14:22;;;;;;;13.48;3.36;;;;;;;;;;356633;150;857753;-67
2021/07/09 05:15:23;;;;;;;10.37;2.86;;;;;;;;;;352533;149;857351;-67
2021/07/09 05:16:26;;;;;;;10.31;2.96;;;;;;;24.94;100.00;151865.52;352058;149;859314;-66
2021/07/09 05:17:28;;;;;;;5.89;2.46;;;;;;;;;;355481;145;858254;-66
2021/07/09 05:18:29;;;;;;;5.11;2.76;;;;;;;;;;352009;150;865334;-67
2021/07/09 05:19:31;;;;;;;8.29;2.56;;;;;;;;;;352196;148;859051;-66
2021/07/09 05:20:34;;;;;;;8.97;2.83;;;;;;;;;;351652;150;858272;-64
2021/07/09 05:21:35;;;;;;;8.70;2.19;;;;;;;;;;352578;148;857317;-66
2021/07/09 05:22:37;;;;;;;7.08;2.26;;;;;;;;;;351832;150;858110;-66
2021/07/09 05:23:38;;;;;;;10.84;2.38;;;;;;;;;;352435;150;859863;-65
2021/07/09 05:24:40;;;;;;;8.89;2.46;;;;;;;;;;357773;150;860848;-66
2021/07/09 05:25:42;;;;;;;10.51;2.29;;;;;;;;;;353767;148;857657;-62
2021/07/09 05:26:47;;;;;;;10.63;2.44;;;;;;;;;;354151;148;864757;-64
2021/07/09 05:27:48;;;;;;;6.42;2.10;;;;;;;;;;351866;150;860777;-65
2021/07/09 05:28:50;;;;;;;8.03;2.13;;;;;;;;;;352600;148;859654;-65
2021/07/09 05:29:52;;;;;;;11.47;3.24;;;;;;;;;;355554;148;857239;-65
2021/07/09 05:30:54;;;;;;;13.06;3.11;;;;;;;;;;351208;148;857244;-65
2021/07/09 05:31:56;;;;;;;13.43;3.14;;;;;;;;;;351397;150;864929;-65
2021/07/09 05:32:57;;;;;;;8.01;2.64;;;;;;;;;;352910;150;857374;-64
2021/07/09 05:33:59;;;;;;;9.94;2.24;;;;;;;;;;352383;148;857340;-65
2021/07/09 05:35:01;;;;;;;11.69;2.36;;;;;;;;;;351323;153;858158;-66
2021/07/09 05:36:03;;;;;;;8.91;2.21;;;;;;;;;;351496;150;858277;-64
2021/07/09 05:37:04;;;;;;;8.57;2.01;;;;;;;;;;352237;148;868340;-65
2021/07/09 05:38:06;;;;;;;3.03;1.86;;;;;;;;;;353735;149;857878;-64
2021/07/09 05:39:07;;;;;;;9.54;2.16;;;;;;;;;;357615;150;864881;-64
2021/07/09 05:40:10;;;;;;;5.47;2.21;;;;;;;;;;353862;148;857380;-65
2021/07/09 05:41:12;;;;;;;6.55;2.23;;;;;;;;;;352982;149;857360;-65
2021/07/09 05:42:13;;;;;;;7.14;2.03;;;;;;;;;;353006;150;859249;-65
2021/07/09 05:43:15;;;;;;;4.59;1.99;;;;;;;;;;355262;147;857267;-65
2021/07/09 05:44:16;;;;;;;11.51;2.26;;;;;;;;;;356004;147;857392;-66
2021/07/09 05:45:19;;;;;;;5.07;2.25;;;;;;;;;;353279;149;857301;-65
2021/07/09 05:46:21;;;;;;;5.13;1.75;;;;;;;;;;353183;150;866515;-64
2021/07/09 05:47:24;;;;;;;5.34;1.95;;;;;;;;;;354990;149;857263;-65
2021/07/09 05:48:26;;;;;;;7.17;2.27;;;;;;;;;;353207;148;858815;-65
2021/07/09 05:49:27;;;;;;;4.57;2.26;;;;;;;;;;357115;149;857126;-65
2021/07/09 05:50:30;;;;;;;10.03;2.47;;;;;;;;;;355953;149;858966;-65
2021/07/09 05:51:32;;;;;;;6.92;2.44;;;;;;;;;;355877;148;859109;-65
2021/07/09 05:52:33;;;;;;;10.11;2.03;;;;;;;;;;355894;149;859451;-64
2021/07/09 05:53:35;;;;;;;11.49;2.35;;;;;;;;;;354472;149;857495;-64
2021/07/09 05:54:37;;;;;;;4.43;1.83;;;;;;;;;;353519;148;857331;-64
2021/07/09 05:55:39;;;;;;;8.10;1.66;;;;;;;;;;358719;148;859167;-66
2021/07/09 05:56:41;;;;;;;4.92;2.18;;;;;;;;;;356477;149;857368;-64
2021/07/09 05:57:42;;;;;;;8.04;2.24;;;;;;;;;;355674;148;857199;-65
2021/07/09 05:58:44;;;;;;;5.17;1.99;;;;;;;;;;356216;148;857270;-65
2021/07/09 05:59:45;;;;;;;4.19;1.81;;;;;;;;;;357535;149;859082;-64
2021/07/09 06:00:48;;;;;;;7.75;2.33;;;;;;;;;;354918;149;859109;-64
2021/07/09 06:01:49;;;;;;;6.05;1.88;;;;;;;;;;355697;148;857339;-64
2021/07/09 06:02:51;;;;;;;5.96;1.93;;;;;;;;;;356758;147;859072;-65
2021/07/09 06:03:53;;;;;;;6.44;1.68;;;;;;;;;;360127;147;859200;-65